Time;durP1;ratioP1;P1;durP2;ratioP2;P2;SDS_P1;SDS_P2;PMS_P1;PMS_P2;Temp;Humidity;BMP_temperature;BMP_pressure;BME280_temperature;BME280_humidity;BME280_pressure;Samples;Min_cycle;Max_cycle;Signal;HPM_P1;HPM_P2
2023/09/21 00:01:11;;;;;;;12.33;11.57;;;15.30;99.90;;;;;;5089500;28;20419;-47
2023/09/21 00:03:39;;;;;;;12.80;12.10;;;15.30;99.90;;;;;;5089742;28;20767;-49
2023/09/21 00:06:05;;;;;;;13.70;12.80;;;15.20;99.90;;;;;;5088362;28;20442;-49
2023/09/21 00:08:31;;;;;;;12.63;11.83;;;15.20;99.90;;;;;;5088208;28;20415;-47
2023/09/21 00:11:07;;;;;;;13.07;12.23;;;15.10;99.90;;;;;;5088372;28;20430;-47
2023/09/21 00:13:33;;;;;;;12.70;12.00;;;15.10;99.90;;;;;;5086995;28;20496;-48
2023/09/21 00:16:02;;;;;;;12.83;12.13;;;15.10;99.90;;;;;;5088415;28;21067;-47
2023/09/21 00:18:29;;;;;;;13.07;12.27;;;15.10;99.90;;;;;;5087349;28;20214;-50
2023/09/21 00:20:56;;;;;;;12.80;11.97;;;15.00;99.90;;;;;;5087242;28;20438;-51
2023/09/21 00:23:25;;;;;;;12.97;12.23;;;15.00;99.90;;;;;;5087363;28;20452;-46
2023/09/21 00:25:58;;;;;;;12.90;12.10;;;15.00;99.90;;;;;;5087813;28;20974;-47
2023/09/21 00:28:28;;;;;;;13.10;12.17;;;14.90;99.90;;;;;;5086904;28;20439;-47
2023/09/21 00:30:57;;;;;;;12.40;11.80;;;14.90;99.90;;;;;;5086406;28;20429;-50
2023/09/21 00:33:27;;;;;;;13.47;12.73;;;14.90;99.90;;;;;;5087240;28;20438;-51
2023/09/21 00:35:53;;;;;;;13.30;12.60;;;14.80;99.90;;;;;;5086104;28;20470;-50
2023/09/21 00:38:20;;;;;;;13.20;12.40;;;14.80;99.90;;;;;;5088892;28;20444;-50
2023/09/21 00:40:47;;;;;;;13.57;12.77;;;14.80;99.90;;;;;;5088145;28;20853;-50
2023/09/21 00:43:24;;;;;;;13.40;12.60;;;14.80;99.90;;;;;;5086946;28;20925;-51
2023/09/21 00:45:53;;;;;;;13.57;12.40;;;14.70;99.90;;;;;;5087364;28;20433;-48
2023/09/21 00:48:25;;;;;;;12.67;11.97;;;14.70;99.90;;;;;;5086863;28;20468;-48
2023/09/21 00:50:53;;;;;;;12.57;11.87;;;14.70;99.90;;;;;;5087918;28;20447;-49
2023/09/21 00:53:19;;;;;;;13.10;12.30;;;14.70;99.90;;;;;;5087096;28;20567;-48
2023/09/21 00:55:51;;;;;;;13.03;12.23;;;14.60;99.90;;;;;;5086875;28;20470;-45
2023/09/21 00:58:19;;;;;;;12.90;12.20;;;14.60;99.90;;;;;;5088443;28;20495;-51
2023/09/21 01:00:46;;;;;;;12.07;11.37;;;14.60;99.90;;;;;;5088568;28;21122;-47
2023/09/21 01:03:12;;;;;;;13.53;12.47;;;14.50;99.90;;;;;;5087624;28;20456;-45
2023/09/21 01:05:41;;;;;;;13.47;12.67;;;14.50;99.90;;;;;;5088092;28;21113;-47
2023/09/21 01:08:21;;;;;;;13.17;12.47;;;14.50;99.90;;;;;;5088677;28;20275;-46
2023/09/21 01:10:51;;;;;;;13.07;12.37;;;14.50;99.90;;;;;;5088165;28;20868;-45
2023/09/21 01:13:18;;;;;;;13.83;13.03;;;14.40;99.90;;;;;;5108537;28;20476;-46
2023/09/21 01:16:02;;;;;;;13.63;12.83;;;14.40;99.90;;;;;;5111376;28;20461;-46
2023/09/21 01:18:28;;;;;;;13.60;12.80;;;14.40;99.90;;;;;;5112545;28;20440;-46
2023/09/21 01:21:04;;;;;;;13.10;12.27;;;14.30;99.90;;;;;;5110820;28;20433;-46
2023/09/21 01:23:46;;;;;;;13.67;12.83;;;14.30;99.90;;;;;;5112014;28;20524;-48
2023/09/21 01:26:22;;;;;;;12.97;12.17;;;14.30;99.90;;;;;;5111235;28;20814;-47
2023/09/21 01:28:48;;;;;;;13.70;12.80;;;14.20;99.90;;;;;;5110138;28;20429;-48
2023/09/21 01:31:15;;;;;;;13.60;12.80;;;14.20;99.90;;;;;;5107838;28;20520;-47
2023/09/21 01:33:44;;;;;;;13.77;12.63;;;14.20;99.90;;;;;;5109976;28;20520;-45
2023/09/21 01:36:12;;;;;;;13.33;12.53;;;14.20;99.90;;;;;;5109690;28;20469;-47
2023/09/21 01:38:39;;;;;;;13.50;12.60;;;14.10;99.90;;;;;;5102649;28;20408;-49
2023/09/21 01:41:06;;;;;;;13.57;12.77;;;14.10;99.90;;;;;;5112553;28;20413;-47
2023/09/21 01:43:33;;;;;;;13.07;12.27;;;14.10;99.90;;;;;;5111034;28;20438;-46
2023/09/21 01:45:59;;;;;;;12.77;11.97;;;14.10;99.90;;;;;;5111756;28;20425;-46
2023/09/21 01:48:26;;;;;;;13.80;12.80;;;14.00;99.90;;;;;;5112149;28;20763;-49
2023/09/21 01:50:57;;;;;;;13.20;12.40;;;14.00;99.90;;;;;;5111892;28;20409;-47
2023/09/21 01:53:23;;;;;;;13.73;12.77;;;14.00;99.90;;;;;;5112516;28;20424;-49
2023/09/21 01:55:50;;;;;;;13.23;12.43;;;14.00;99.90;;;;;;5111247;28;20549;-47
2023/09/21 01:58:17;;;;;;;12.57;11.77;;;14.00;99.90;;;;;;5112670;28;20413;-46
2023/09/21 02:00:49;;;;;;;12.93;12.23;;;14.00;99.90;;;;;;5112218;28;20413;-45
2023/09/21 02:03:19;;;;;;;12.87;12.17;;;14.00;99.90;;;;;;5094057;28;20459;-44
2023/09/21 02:05:48;;;;;;;13.73;12.83;;;14.00;99.90;;;;;;5111503;28;20445;-47
2023/09/21 02:08:16;;;;;;;13.80;12.80;;;14.00;99.90;;;;;;5111598;28;20414;-42
2023/09/21 02:10:43;;;;;;;12.60;11.90;;;13.90;99.90;;;;;;5112264;28;20971;-46
2023/09/21 02:13:09;;;;;;;13.70;12.90;;;13.90;99.90;;;;;;5111745;28;20487;-48
2023/09/21 02:15:39;;;;;;;12.63;11.90;;;13.90;99.90;;;;;;5092795;28;20480;-46
2023/09/21 02:18:09;;;;;;;12.03;11.33;;;13.80;99.90;;;;;;5111507;28;20425;-43
2023/09/21 02:20:40;;;;;;;13.80;12.90;;;13.80;99.90;;;;;;5111971;28;20421;-47
2023/09/21 02:23:06;;;;;;;13.40;12.60;;;13.80;99.90;;;;;;5112133;28;20422;-47
2023/09/21 02:25:41;;;;;;;13.27;12.37;;;13.80;99.90;;;;;;5109812;28;20452;-46
2023/09/21 02:28:11;;;;;;;13.27;12.40;;;13.80;99.90;;;;;;5110949;28;20451;-45
2023/09/21 02:30:43;;;;;;;12.80;11.90;;;13.80;99.90;;;;;;5111658;28;20780;-49
2023/09/21 02:33:09;;;;;;;11.97;11.23;;;13.70;99.90;;;;;;5111854;28;21347;-48
2023/09/21 02:35:40;;;;;;;13.10;12.20;;;13.70;99.90;;;;;;5111055;28;20799;-46
2023/09/21 02:38:07;;;;;;;13.20;12.30;;;13.70;99.90;;;;;;5090037;28;20429;-46
2023/09/21 02:40:33;;;;;;;14.40;13.30;;;13.70;99.90;;;;;;5107849;28;20792;-47
2023/09/21 02:42:59;;;;;;;13.63;12.73;;;13.70;99.90;;;;;;5110216;28;20471;-47
2023/09/21 02:45:25;;;;;;;13.27;12.37;;;13.60;99.90;;;;;;5109786;28;20183;-49
2023/09/21 02:47:52;;;;;;;13.90;13.00;;;13.60;99.90;;;;;;5109484;28;20195;-50
2023/09/21 02:50:27;;;;;;;13.30;12.30;;;13.60;99.90;;;;;;5109770;28;21306;-42
2023/09/21 02:52:54;;;;;;;14.83;13.77;;;13.60;99.90;;;;;;5110034;28;20429;-45
2023/09/21 02:55:25;;;;;;;13.10;12.23;;;13.60;99.90;;;;;;5101230;28;21053;-49
2023/09/21 02:57:56;;;;;;;13.70;12.80;;;13.50;99.90;;;;;;5107206;28;20439;-49
2023/09/21 03:00:35;;;;;;;13.33;12.53;;;13.50;99.90;;;;;;5101824;28;20500;-52
2023/09/21 03:03:05;;;;;;;13.27;12.37;;;13.50;99.90;;;;;;5106726;28;20428;-46
2023/09/21 03:05:33;;;;;;;13.20;12.37;;;13.50;99.90;;;;;;5110881;28;20448;-45
2023/09/21 03:08:13;;;;;;;13.00;12.03;;;13.50;99.90;;;;;;5110268;28;20926;-45
2023/09/21 03:10:40;;;;;;;12.93;12.07;;;13.50;99.90;;;;;;5110705;28;20463;-45
2023/09/21 03:13:05;;;;;;;12.47;11.77;;;13.40;99.90;;;;;;5092068;28;20489;-50
2023/09/21 03:15:33;;;;;;;12.97;12.07;;;13.50;99.90;;;;;;5109885;28;20465;-48
2023/09/21 03:17:58;;;;;;;13.50;12.60;;;13.50;99.90;;;;;;5109377;28;20188;-51
2023/09/21 03:20:37;;;;;;;12.60;11.80;;;13.50;99.90;;;;;;5110650;28;20951;-50
2023/09/21 03:23:09;;;;;;;12.50;11.70;;;13.50;99.90;;;;;;5110736;28;20199;-50
2023/09/21 03:25:40;;;;;;;12.20;11.40;;;13.50;99.90;;;;;;5110431;28;20530;-52
2023/09/21 03:28:10;;;;;;;12.90;12.00;;;13.50;99.90;;;;;;5110313;28;20456;-47
2023/09/21 03:31:02;;;;;;;11.40;10.70;;;13.50;99.90;;;;;;5110679;28;20436;-49
2023/09/21 03:33:28;;;;;;;11.47;10.77;;;13.50;99.90;;;;;;5106155;28;20462;-49
2023/09/21 03:35:55;;;;;;;12.60;11.80;;;13.60;99.90;;;;;;5108473;28;20461;-45
2023/09/21 03:38:21;;;;;;;11.50;10.77;;;13.60;99.90;;;;;;5110348;28;20422;-47
2023/09/21 03:40:50;;;;;;;11.40;10.60;;;13.60;99.90;;;;;;5110371;28;20414;-46
2023/09/21 03:43:18;;;;;;;11.87;11.07;;;13.60;99.90;;;;;;5110064;28;20546;-46
2023/09/21 03:45:44;;;;;;;12.23;11.43;;;13.70;99.90;;;;;;5091779;28;20437;-51
2023/09/21 03:48:11;;;;;;;12.73;11.83;;;13.70;99.90;;;;;;5109993;28;20472;-50
2023/09/21 03:50:38;;;;;;;11.80;11.10;;;13.80;99.90;;;;;;5109893;28;20762;-51
2023/09/21 03:53:05;;;;;;;11.70;11.00;;;13.80;99.90;;;;;;5091662;28;20449;-47
2023/09/21 03:55:31;;;;;;;11.93;11.20;;;13.90;99.90;;;;;;5098839;28;20462;-47
2023/09/21 03:57:56;;;;;;;11.40;10.70;;;13.90;99.90;;;;;;5108535;28;20434;-49
2023/09/21 04:03:04;;;;;;;11.50;10.73;;;14.10;99.90;;;;;;5109915;28;20690;-47
2023/09/21 04:05:31;;;;;;;12.27;11.30;;;14.30;99.90;;;;;;5109810;28;20959;-49
2023/09/21 04:07:57;;;;;;;12.00;11.07;;;14.40;99.90;;;;;;5106930;28;20441;-48
2023/09/21 04:10:24;;;;;;;11.60;10.90;;;14.60;99.90;;;;;;5109803;28;20426;-47
2023/09/21 04:12:54;;;;;;;10.77;10.07;;;14.70;99.90;;;;;;5108774;28;20528;-45
2023/09/21 04:15:20;;;;;;;12.33;11.53;;;14.80;99.90;;;;;;5109097;28;20448;-47
2023/09/21 04:17:46;;;;;;;10.73;10.13;;;15.10;99.90;;;;;;5103821;28;20413;-47
2023/09/21 04:20:12;;;;;;;11.97;11.17;;;15.20;99.90;;;;;;5099721;28;20466;-47
2023/09/21 04:22:39;;;;;;;12.53;11.73;;;15.30;99.90;;;;;;5101121;28;20184;-47
2023/09/21 04:25:14;;;;;;;12.40;11.60;;;15.40;99.90;;;;;;5100249;28;20426;-47
2023/09/21 04:27:45;;;;;;;11.77;10.97;;;15.50;99.90;;;;;;5098831;28;20467;-50
2023/09/21 04:30:14;;;;;;;12.33;11.50;;;15.70;99.90;;;;;;5097538;28;20476;-48
2023/09/21 04:32:45;;;;;;;11.70;10.80;;;15.80;99.90;;;;;;5100815;28;20467;-48
2023/09/21 04:35:11;;;;;;;12.03;11.33;;;16.00;99.90;;;;;;5100377;28;20429;-47
2023/09/21 04:37:39;;;;;;;12.83;12.03;;;16.00;99.90;;;;;;5080302;28;20465;-50
2023/09/21 04:40:10;;;;;;;12.77;12.00;;;16.20;99.90;;;;;;5097815;28;20452;-49
2023/09/21 04:42:45;;;;;;;12.57;11.77;;;16.30;99.90;;;;;;5092617;28;20434;-53
2023/09/21 04:45:12;;;;;;;11.73;10.93;;;16.40;99.90;;;;;;5096673;28;20474;-47
2023/09/21 04:47:39;;;;;;;12.73;11.83;;;16.50;99.90;;;;;;5100251;28;20464;-46
2023/09/21 04:50:06;;;;;;;12.70;11.90;;;16.50;99.90;;;;;;5103716;28;20918;-45
2023/09/21 04:52:33;;;;;;;13.63;12.83;;;16.60;99.90;;;;;;5104978;28;20416;-48
2023/09/21 04:54:59;;;;;;;13.57;12.77;;;16.70;99.90;;;;;;5104068;28;20501;-49
2023/09/21 04:57:30;;;;;;;12.90;12.20;;;16.70;99.90;;;;;;5102513;28;20796;-49
2023/09/21 04:59:56;;;;;;;12.70;11.90;;;16.80;99.90;;;;;;5103488;28;21035;-52
2023/09/21 05:02:21;;;;;;;12.97;12.17;;;16.90;99.90;;;;;;5102051;28;20440;-51
2023/09/21 05:04:47;;;;;;;12.80;11.97;;;16.90;99.90;;;;;;5104295;28;20206;-50
2023/09/21 05:07:14;;;;;;;13.70;12.90;;;17.00;99.90;;;;;;5104152;28;20266;-48
2023/09/21 05:09:40;;;;;;;12.70;12.00;;;17.00;99.90;;;;;;5104390;28;20642;-48
2023/09/21 05:12:06;;;;;;;13.23;12.40;;;17.10;99.90;;;;;;5100629;28;21053;-45
2023/09/21 05:14:33;;;;;;;12.47;11.80;;;17.10;99.90;;;;;;5083055;28;20441;-45
2023/09/21 05:16:58;;;;;;;13.60;12.70;;;17.10;99.90;;;;;;5103214;28;20494;-46
2023/09/21 05:19:25;;;;;;;13.47;12.33;;;17.20;99.90;;;;;;5104427;28;20941;-50
2023/09/21 05:21:56;;;;;;;13.00;12.23;;;17.20;99.90;;;;;;5082178;28;20841;-46
2023/09/21 05:24:22;;;;;;;13.37;12.40;;;17.20;99.90;;;;;;5099548;28;20529;-47
2023/09/21 05:26:48;;;;;;;12.03;11.37;;;17.30;99.90;;;;;;5103225;28;20508;-48
2023/09/21 05:29:14;;;;;;;11.80;11.20;;;17.30;99.90;;;;;;5103792;28;20417;-51
2023/09/21 05:31:39;;;;;;;11.50;10.80;;;17.30;99.90;;;;;;5101029;28;20194;-53
2023/09/21 05:34:05;;;;;;;12.27;11.47;;;17.40;99.90;;;;;;5103368;28;21093;-49
2023/09/21 05:36:31;;;;;;;11.70;11.00;;;17.40;99.90;;;;;;5101461;28;20299;-46
2023/09/21 05:38:56;;;;;;;12.43;11.73;;;17.40;99.90;;;;;;5102834;28;20184;-47
2023/09/21 05:41:22;;;;;;;13.47;12.60;;;17.40;99.90;;;;;;5102867;28;20176;-47
2023/09/21 05:43:49;;;;;;;13.10;12.40;;;17.40;99.90;;;;;;5103275;28;20854;-45
2023/09/21 05:46:14;;;;;;;12.80;12.00;;;17.50;99.90;;;;;;5084002;28;20318;-46
2023/09/21 05:48:40;;;;;;;12.57;11.53;;;17.50;99.90;;;;;;5102778;28;20434;-47
2023/09/21 05:51:06;;;;;;;12.80;12.10;;;17.50;99.90;;;;;;5101303;28;20191;-49
2023/09/21 05:53:32;;;;;;;13.10;12.30;;;17.50;99.90;;;;;;5102284;28;20437;-50
2023/09/21 05:55:58;;;;;;;12.90;12.20;;;17.50;99.90;;;;;;5101807;28;21297;-52
2023/09/21 05:58:24;;;;;;;13.13;12.33;;;17.50;99.90;;;;;;5101414;28;20437;-45
2023/09/21 06:00:51;;;;;;;13.03;12.23;;;17.50;99.90;;;;;;5100844;28;20180;-52
2023/09/21 06:03:17;;;;;;;13.03;12.03;;;17.50;99.90;;;;;;5101532;28;20425;-49
2023/09/21 06:05:45;;;;;;;12.70;11.80;;;17.50;99.90;;;;;;5102897;28;20417;-49
2023/09/21 06:08:11;;;;;;;12.97;11.97;;;17.60;99.90;;;;;;5102725;28;20184;-47
2023/09/21 06:10:36;;;;;;;12.60;11.90;;;17.70;99.90;;;;;;5101215;28;20433;-49
2023/09/21 06:13:05;;;;;;;13.00;12.00;;;17.70;99.90;;;;;;5102832;28;20265;-52
2023/09/21 06:15:31;;;;;;;12.43;11.70;;;17.70;99.90;;;;;;5100630;28;20916;-49
2023/09/21 06:17:57;;;;;;;11.83;11.13;;;17.80;99.90;;;;;;5100535;28;20412;-46
2023/09/21 06:20:23;;;;;;;12.27;11.57;;;17.80;99.90;;;;;;5100595;28;20444;-49
2023/09/21 06:22:49;;;;;;;11.53;10.93;;;17.80;99.90;;;;;;5102855;28;20172;-49
2023/09/21 06:25:14;;;;;;;12.00;11.30;;;17.90;99.90;;;;;;5102413;28;20194;-53
2023/09/21 06:27:41;;;;;;;12.37;11.57;;;17.90;99.90;;;;;;5102579;28;20175;-47
2023/09/21 06:30:07;;;;;;;11.73;11.13;;;17.90;99.90;;;;;;5099322;28;20187;-48
2023/09/21 06:32:33;;;;;;;11.50;10.80;;;18.00;99.90;;;;;;5101853;28;20429;-48
2023/09/21 06:34:59;;;;;;;12.07;11.27;;;18.00;99.90;;;;;;5101721;28;20907;-49
2023/09/21 06:37:26;;;;;;;13.07;12.37;;;18.00;99.90;;;;;;5102081;28;20740;-48
2023/09/21 06:39:52;;;;;;;11.90;11.20;;;18.00;99.90;;;;;;5099873;28;20180;-49
2023/09/21 06:42:17;;;;;;;12.50;11.70;;;18.00;99.90;;;;;;5099332;28;20775;-49
2023/09/21 06:44:43;;;;;;;12.40;11.33;;;18.00;99.90;;;;;;5101314;28;20172;-47
2023/09/21 06:47:11;;;;;;;12.93;12.13;;;18.00;99.90;;;;;;5101196;28;20188;-45
2023/09/21 06:49:36;;;;;;;12.80;12.00;;;18.10;99.90;;;;;;5102078;28;20183;-49
2023/09/21 06:52:04;;;;;;;12.70;12.00;;;18.20;99.90;;;;;;5100621;28;20469;-47
2023/09/21 06:54:29;;;;;;;12.50;11.80;;;18.20;99.90;;;;;;5100565;28;20191;-49
2023/09/21 06:57:03;;;;;;;12.27;11.67;;;18.30;99.90;;;;;;5101666;28;20461;-47
2023/09/21 06:59:31;;;;;;;13.20;12.50;;;18.40;99.90;;;;;;5101688;28;20168;-48
2023/09/21 07:01:56;;;;;;;12.27;11.57;;;18.50;99.90;;;;;;5101000;28;20491;-51
2023/09/21 07:04:22;;;;;;;12.57;11.87;;;18.60;99.90;;;;;;5100225;28;20508;-49
2023/09/21 07:06:50;;;;;;;13.00;12.30;;;18.60;99.90;;;;;;5101841;28;20309;-47
2023/09/21 07:09:16;;;;;;;12.47;11.77;;;18.70;99.90;;;;;;5099470;28;20449;-46
2023/09/21 07:11:42;;;;;;;12.83;12.10;;;18.70;99.90;;;;;;5081514;28;20468;-46
2023/09/21 07:14:07;;;;;;;13.20;12.40;;;18.80;99.90;;;;;;5101459;28;20210;-42
2023/09/21 07:16:33;;;;;;;12.17;11.50;;;18.90;99.90;;;;;;5099972;28;20695;-43
2023/09/21 07:18:58;;;;;;;13.13;12.37;;;19.00;99.90;;;;;;5098083;28;20187;-41
2023/09/21 07:21:24;;;;;;;12.53;11.83;;;19.10;99.90;;;;;;5100672;28;20188;-41
2023/09/21 07:23:50;;;;;;;11.67;11.00;;;19.20;99.90;;;;;;5098726;28;20186;-44
2023/09/21 07:26:15;;;;;;;13.10;12.40;;;19.20;99.90;;;;;;5087627;28;20184;-42
2023/09/21 07:28:41;;;;;;;12.57;11.93;;;19.40;99.90;;;;;;5098725;28;20259;-41
2023/09/21 07:31:09;;;;;;;13.17;12.37;;;19.50;99.90;;;;;;5097818;28;20176;-42
2023/09/21 07:33:35;;;;;;;13.40;12.63;;;19.60;99.90;;;;;;5098277;28;20912;-45
2023/09/21 07:36:02;;;;;;;14.10;13.27;;;19.80;99.90;;;;;;5099905;28;20474;-41
2023/09/21 07:38:28;;;;;;;13.90;13.10;;;19.80;99.90;;;;;;5100645;28;20914;-42
2023/09/21 07:40:54;;;;;;;13.53;12.80;;;20.00;99.90;;;;;;5099222;28;20453;-44
2023/09/21 07:43:19;;;;;;;14.50;13.50;;;20.10;99.90;;;;;;5100951;28;20955;-41
2023/09/21 07:45:49;;;;;;;14.13;13.17;;;20.20;99.90;;;;;;5098118;28;20430;-42
2023/09/21 07:48:16;;;;;;;14.20;13.10;;;20.30;99.90;;;;;;5100770;28;20207;-43
2023/09/21 07:50:42;;;;;;;14.80;13.80;;;20.40;99.90;;;;;;5100286;28;21003;-44
2023/09/21 07:53:08;;;;;;;14.27;13.43;;;20.60;99.90;;;;;;5099580;28;20541;-43
2023/09/21 07:55:36;;;;;;;14.30;13.50;;;20.70;99.90;;;;;;5096876;28;20543;-43
2023/09/21 07:58:02;;;;;;;14.80;13.80;;;20.80;99.90;;;;;;5100232;28;20418;-42
2023/09/21 08:00:29;;;;;;;14.70;13.80;;;21.00;99.90;;;;;;5099973;28;20496;-41
2023/09/21 08:02:55;;;;;;;14.17;13.37;;;21.20;99.90;;;;;;5098851;28;20417;-42
2023/09/21 08:05:20;;;;;;;13.93;13.00;;;21.30;99.90;;;;;;5098865;28;20860;-41
2023/09/21 08:07:46;;;;;;;14.10;13.20;;;21.40;99.90;;;;;;5099339;28;20614;-45
2023/09/21 08:10:12;;;;;;;14.17;13.27;;;21.60;99.90;;;;;;5098592;28;21037;-41
2023/09/21 08:12:40;;;;;;;13.90;13.00;;;21.80;99.90;;;;;;5097503;28;20238;-40
2023/09/21 08:15:06;;;;;;;14.17;13.27;;;22.00;99.90;;;;;;5097120;28;20172;-42
2023/09/21 08:17:33;;;;;;;14.70;13.53;;;22.30;99.90;;;;;;5079308;28;20476;-44
2023/09/21 08:19:59;;;;;;;13.50;12.70;;;22.50;99.90;;;;;;5098663;28;20422;-41
2023/09/21 08:22:28;;;;;;;13.83;13.13;;;22.60;99.90;;;;;;5098774;28;20453;-41
2023/09/21 08:24:53;;;;;;;14.37;13.47;;;22.80;99.90;;;;;;5098582;28;20605;-41
2023/09/21 08:27:19;;;;;;;14.17;13.30;;;23.10;99.90;;;;;;5097416;28;20522;-41
2023/09/21 08:29:45;;;;;;;14.23;13.17;;;23.50;99.90;;;;;;5095641;28;20633;-44
2023/09/21 08:32:10;;;;;;;14.67;13.70;;;23.70;99.90;;;;;;5100100;28;21232;-41
2023/09/21 08:34:36;;;;;;;14.20;13.40;;;23.80;99.90;;;;;;5099163;28;21183;-43
2023/09/21 08:37:02;;;;;;;15.70;14.70;;;24.00;99.90;;;;;;5098378;28;20299;-41
2023/09/21 08:39:28;;;;;;;14.30;13.50;;;23.90;99.90;;;;;;5094076;28;20218;-41
2023/09/21 08:41:54;;;;;;;15.77;14.60;;;23.60;99.90;;;;;;5098055;28;20512;-42
2023/09/21 08:44:20;;;;;;;15.50;14.50;;;23.70;99.90;;;;;;5099148;28;20176;-42
2023/09/21 08:46:50;;;;;;;15.17;14.27;;;23.80;99.90;;;;;;5100134;28;20183;-44
2023/09/21 08:49:16;;;;;;;15.10;14.00;;;24.00;99.90;;;;;;5096064;28;20441;-42
2023/09/21 08:51:42;;;;;;;14.90;14.07;;;24.00;99.90;;;;;;5097084;28;20507;-42
2023/09/21 08:54:09;;;;;;;15.00;13.90;;;23.90;99.90;;;;;;5097278;28;20437;-43
2023/09/21 08:56:38;;;;;;;15.53;14.43;;;23.80;99.90;;;;;;5094778;28;20647;-45
2023/09/21 08:59:06;;;;;;;15.50;14.60;;;23.80;99.90;;;;;;5099635;28;20418;-43
2023/09/21 09:01:32;;;;;;;16.23;14.87;;;23.70;99.90;;;;;;5094922;28;20492;-43
2023/09/21 09:03:58;;;;;;;15.07;14.10;;;23.60;99.90;;;;;;5091123;28;20512;-43
2023/09/21 09:06:27;;;;;;;15.43;14.33;;;23.90;99.90;;;;;;5096739;28;20453;-44
2023/09/21 09:08:54;;;;;;;14.80;13.90;;;24.10;99.90;;;;;;5091347;28;20426;-45
2023/09/21 09:11:40;;;;;;;14.57;13.47;;;24.20;99.90;;;;;;5096737;28;20425;-41
2023/09/21 09:14:18;;;;;;;15.63;14.73;;;24.30;99.90;;;;;;5096760;28;20442;-41
2023/09/21 09:16:46;;;;;;;14.93;13.97;;;24.50;99.90;;;;;;5097559;28;20930;-41
2023/09/21 09:19:12;;;;;;;15.67;14.60;;;24.60;99.90;;;;;;5098704;28;20482;-44
2023/09/21 09:21:38;;;;;;;15.13;14.13;;;24.70;99.70;;;;;;5097388;28;20441;-44
2023/09/21 09:24:04;;;;;;;14.73;13.90;;;24.80;99.00;;;;;;5093616;28;21141;-42
2023/09/21 09:26:31;;;;;;;15.80;14.90;;;24.90;99.20;;;;;;5096981;28;20429;-41
2023/09/21 09:29:13;;;;;;;15.53;14.53;;;25.00;98.40;;;;;;5098208;28;20486;-43
2023/09/21 09:31:41;;;;;;;14.57;13.67;;;25.10;98.60;;;;;;5094122;28;20460;-47
2023/09/21 09:34:09;;;;;;;15.63;14.63;;;25.40;99.10;;;;;;5099054;28;20540;-43
2023/09/21 09:36:36;;;;;;;15.40;14.40;;;25.70;98.10;;;;;;5102663;28;20711;-43
2023/09/21 09:39:08;;;;;;;15.07;14.17;;;26.00;96.90;;;;;;5103105;28;20486;-44
2023/09/21 09:41:37;;;;;;;14.50;13.70;;;26.10;94.80;;;;;;5102861;28;20416;-46
2023/09/21 09:44:06;;;;;;;15.97;14.70;;;26.20;94.30;;;;;;5101916;28;20436;-42
2023/09/21 09:46:37;;;;;;;15.83;14.93;;;26.30;94.50;;;;;;5100947;28;20544;-45
2023/09/21 09:49:04;;;;;;;16.00;14.93;;;26.40;94.80;;;;;;5102530;28;20409;-43
2023/09/21 09:51:52;;;;;;;16.10;15.10;;;26.60;93.40;;;;;;5103016;28;20414;-43
2023/09/21 09:54:19;;;;;;;16.00;15.00;;;26.70;93.10;;;;;;5098991;28;20520;-41
2023/09/21 09:56:51;;;;;;;17.00;15.90;;;26.90;93.10;;;;;;5084616;28;20594;-42
2023/09/21 09:59:19;;;;;;;17.50;16.10;;;26.90;91.80;;;;;;5102422;28;20417;-49
2023/09/21 10:01:45;;;;;;;17.73;16.53;;;27.00;91.30;;;;;;5100261;28;20544;-42
2023/09/21 10:04:10;;;;;;;17.37;16.17;;;27.00;91.00;;;;;;5098960;28;21347;-42
2023/09/21 10:06:37;;;;;;;18.53;17.20;;;27.10;90.80;;;;;;5100771;28;20225;-42
2023/09/21 10:09:11;;;;;;;18.10;16.90;;;27.10;90.30;;;;;;5100743;28;20172;-43
2023/09/21 10:11:45;;;;;;;17.60;16.40;;;27.10;90.30;;;;;;5100741;28;20529;-43
2023/09/21 10:14:13;;;;;;;17.63;16.50;;;27.10;88.70;;;;;;5100924;28;21119;-47
2023/09/21 10:16:41;;;;;;;18.23;16.90;;;27.10;90.80;;;;;;5101417;28;20534;-43
2023/09/21 10:19:16;;;;;;;18.00;16.70;;;27.20;89.40;;;;;;5101093;28;21002;-42
2023/09/21 10:21:45;;;;;;;15.80;14.90;;;27.40;90.10;;;;;;5100259;28;20902;-44
2023/09/21 10:24:14;;;;;;;15.80;14.90;;;27.50;86.30;;;;;;5098123;28;20451;-48
2023/09/21 10:26:50;;;;;;;14.40;13.60;;;27.50;85.40;;;;;;5100894;28;20491;-43
2023/09/21 10:29:19;;;;;;;16.80;15.63;;;27.60;85.80;;;;;;5101984;28;20433;-45
2023/09/21 10:32:00;;;;;;;16.50;15.60;;;27.80;85.20;;;;;;5100808;28;20468;-44
2023/09/21 10:34:26;;;;;;;16.30;15.10;;;28.00;82.60;;;;;;5101549;28;20468;-46
2023/09/21 10:37:06;;;;;;;16.03;15.03;;;28.10;81.80;;;;;;5101938;28;20465;-46
2023/09/21 10:39:32;;;;;;;16.93;15.83;;;28.20;78.80;;;;;;5101461;28;20426;-45
2023/09/21 10:42:03;;;;;;;17.27;16.27;;;28.10;79.40;;;;;;5101316;28;21016;-43
2023/09/21 10:44:58;;;;;;;17.73;16.73;;;28.20;78.90;;;;;;5100741;28;20696;-44
2023/09/21 10:47:38;;;;;;;18.23;16.97;;;28.30;77.60;;;;;;5099787;28;20448;-45
2023/09/21 10:50:14;;;;;;;18.70;17.40;;;28.30;76.20;;;;;;5101719;28;20444;-44
2023/09/21 10:52:43;;;;;;;18.33;17.23;;;28.20;75.20;;;;;;5099797;28;20468;-43
2023/09/21 10:55:14;;;;;;;17.87;16.70;;;28.20;74.40;;;;;;5093223;28;20445;-43
2023/09/21 10:57:41;;;;;;;18.33;16.87;;;28.30;75.00;;;;;;5097927;28;20508;-43
2023/09/21 11:00:08;;;;;;;19.50;18.20;;;28.20;75.40;;;;;;5101006;28;20413;-45
2023/09/21 11:02:39;;;;;;;19.13;17.83;;;28.40;73.70;;;;;;5100119;28;20441;-42
2023/09/21 11:05:06;;;;;;;18.40;17.30;;;28.30;73.20;;;;;;5094288;28;20425;-46
2023/09/21 11:07:33;;;;;;;19.20;17.90;;;28.20;73.40;;;;;;5101625;28;20444;-43
2023/09/21 11:09:59;;;;;;;19.60;18.33;;;28.50;73.50;;;;;;5101131;28;20417;-43
2023/09/21 11:12:25;;;;;;;19.47;18.13;;;28.90;72.80;;;;;;5098802;28;20480;-44
2023/09/21 11:14:51;;;;;;;19.47;18.13;;;29.20;69.30;;;;;;5100742;28;20211;-45
2023/09/21 11:17:17;;;;;;;19.07;17.67;;;29.50;67.70;;;;;;5100892;28;20206;-46
2023/09/21 11:19:43;;;;;;;18.73;17.53;;;29.40;64.70;;;;;;5100353;28;20737;-46
2023/09/21 11:22:18;;;;;;;17.83;16.63;;;29.10;65.10;;;;;;5100390;28;20897;-44
2023/09/21 11:24:45;;;;;;;19.37;18.10;;;29.30;65.10;;;;;;5098162;28;20425;-45
2023/09/21 11:27:14;;;;;;;17.97;16.83;;;29.50;63.70;;;;;;5101088;28;21139;-42
2023/09/21 11:29:42;;;;;;;17.97;16.87;;;29.40;61.80;;;;;;5078582;28;20492;-42
2023/09/21 11:32:09;;;;;;;18.07;16.87;;;29.40;62.10;;;;;;5098173;28;20448;-41
2023/09/21 11:34:36;;;;;;;17.73;16.63;;;29.40;61.60;;;;;;5096466;28;21200;-43
2023/09/21 11:37:04;;;;;;;18.07;16.90;;;29.40;61.20;;;;;;5099533;28;20576;-43
2023/09/21 11:39:30;;;;;;;16.70;15.73;;;29.40;60.30;;;;;;5099905;28;20443;-46
2023/09/21 11:41:57;;;;;;;16.60;15.50;;;29.10;61.10;;;;;;5100867;28;20409;-46
2023/09/21 11:44:29;;;;;;;17.40;16.40;;;29.00;62.40;;;;;;5100259;28;20414;-43
2023/09/21 11:46:57;;;;;;;18.07;16.97;;;29.10;61.80;;;;;;5098754;28;21253;-47
2023/09/21 11:49:40;;;;;;;16.20;15.13;;;29.20;61.80;;;;;;5097426;28;21003;-44
2023/09/21 11:52:07;;;;;;;16.67;15.63;;;29.70;60.90;;;;;;5100311;28;20766;-46
2023/09/21 11:54:38;;;;;;;16.33;15.43;;;30.20;59.70;;;;;;5099020;28;20441;-44
2023/09/21 11:57:04;;;;;;;16.53;15.63;;;30.70;57.90;;;;;;5099951;28;20457;-48
2023/09/21 11:59:34;;;;;;;16.27;15.27;;;31.10;55.70;;;;;;5081075;28;21560;-45
2023/09/21 12:02:08;;;;;;;16.77;15.57;;;30.70;54.50;;;;;;5099171;28;20418;-47
2023/09/21 12:04:34;;;;;;;15.40;14.50;;;31.00;54.40;;;;;;5099025;28;20991;-44
2023/09/21 12:07:00;;;;;;;14.97;14.17;;;31.20;53.00;;;;;;5100266;28;20405;-43
2023/09/21 12:09:26;;;;;;;15.23;14.33;;;31.40;52.90;;;;;;5099958;28;20260;-43
2023/09/21 12:11:54;;;;;;;16.80;15.80;;;31.40;51.70;;;;;;5100475;28;20231;-46
2023/09/21 12:14:23;;;;;;;16.00;15.10;;;30.90;51.50;;;;;;5099396;28;20405;-47
2023/09/21 12:16:53;;;;;;;16.13;15.13;;;30.60;52.50;;;;;;5100039;28;20779;-45
2023/09/21 12:19:19;;;;;;;15.50;14.60;;;31.00;52.10;;;;;;5100300;28;20425;-43
2023/09/21 12:21:48;;;;;;;16.00;15.00;;;30.90;50.60;;;;;;5097978;28;20923;-46
2023/09/21 12:24:15;;;;;;;16.10;15.20;;;31.20;50.40;;;;;;5099604;28;20417;-42
2023/09/21 12:26:41;;;;;;;15.37;14.47;;;31.00;49.70;;;;;;5096208;28;20439;-46
2023/09/21 12:29:08;;;;;;;16.40;15.40;;;31.00;50.00;;;;;;5099868;28;20903;-46
2023/09/21 12:31:35;;;;;;;15.50;14.60;;;30.90;49.70;;;;;;5098262;28;20437;-46
2023/09/21 12:34:02;;;;;;;16.23;15.23;;;30.90;50.20;;;;;;5098678;28;20434;-44
2023/09/21 12:36:28;;;;;;;16.20;15.20;;;30.70;49.90;;;;;;5099206;28;20974;-41